createdAt,value
2017-10-09T00:01:29.735Z,7.77
2017-10-09T00:03:57.283Z,8.63
2017-10-09T00:06:24.819Z,10.70
2017-10-09T00:08:52.374Z,9.20
2017-10-09T00:11:19.913Z,10.77
2017-10-09T00:13:48.245Z,14.83
2017-10-09T00:16:15.783Z,10.43
2017-10-09T00:18:43.319Z,12.30
2017-10-09T00:21:11.646Z,11.50
2017-10-09T00:23:39.940Z,12.40
2017-10-09T00:26:07.499Z,14.17
2017-10-09T00:28:35.024Z,10.80
2017-10-09T00:31:02.576Z,8.63
2017-10-09T00:33:30.102Z,10.27
2017-10-09T00:35:58.424Z,10.23
2017-10-09T00:38:25.951Z,11.40
2017-10-09T00:40:54.274Z,11.53
2017-10-09T00:43:21.798Z,10.07
2017-10-09T00:45:49.358Z,11.03
2017-10-09T00:48:16.883Z,9.03
2017-10-09T00:50:44.440Z,9.83
2017-10-09T00:53:11.979Z,9.70
2017-10-09T00:55:39.530Z,9.80
2017-10-09T00:58:07.055Z,9.63
2017-10-09T01:00:34.615Z,10.47
2017-10-09T01:03:02.152Z,10.80
2017-10-09T01:05:30.470Z,9.60
2017-10-09T01:07:58.007Z,11.33
2017-10-09T01:10:25.565Z,9.03
2017-10-09T01:12:53.867Z,11.97
2017-10-09T01:15:21.421Z,11.03
2017-10-09T01:17:48.959Z,14.37
2017-10-09T01:20:17.292Z,9.83
2017-10-09T01:22:44.823Z,10.20
2017-10-09T01:25:12.351Z,9.50
2017-10-09T01:27:40.673Z,8.33
2017-10-09T01:30:08.198Z,8.70
2017-10-09T01:32:35.763Z,7.77
2017-10-09T01:35:03.287Z,9.93
2017-10-09T01:37:30.846Z,11.67
2017-10-09T01:39:58.374Z,8.53
2017-10-09T01:42:25.938Z,13.07
2017-10-09T01:44:53.466Z,9.23
2017-10-09T01:47:21.019Z,9.13
2017-10-09T01:49:50.108Z,8.67
2017-10-09T01:52:17.674Z,10.13
2017-10-09T01:54:45.202Z,9.97
2017-10-09T01:57:12.759Z,9.37
2017-10-09T01:59:41.262Z,7.47
2017-10-09T02:02:09.579Z,7.60
2017-10-09T02:04:37.105Z,8.60
2017-10-09T02:07:05.427Z,10.53
2017-10-09T02:09:32.958Z,7.37
2017-10-09T02:12:00.515Z,11.87
2017-10-09T02:14:28.052Z,8.23
2017-10-09T02:16:56.369Z,10.33
2017-10-09T02:19:23.890Z,8.30
2017-10-09T02:21:52.214Z,8.80
2017-10-09T02:24:19.740Z,9.47
2017-10-09T02:26:47.280Z,11.80
2017-10-09T02:29:15.606Z,11.53
2017-10-09T02:31:43.131Z,9.50
2017-10-09T02:34:10.703Z,10.47
2017-10-09T02:36:38.234Z,9.80
2017-10-09T02:39:05.787Z,11.23
2017-10-09T02:41:33.324Z,13.93
2017-10-09T02:44:00.878Z,13.47
2017-10-09T02:46:28.411Z,8.60
2017-10-09T02:48:55.975Z,8.80
2017-10-09T02:51:23.504Z,11.23
2017-10-09T02:53:51.832Z,12.20
2017-10-09T02:56:19.359Z,10.53
2017-10-09T02:58:46.910Z,9.27
2017-10-09T03:01:14.447Z,12.53
2017-10-09T03:03:42.776Z,8.97
2017-10-09T03:06:10.315Z,12.13
2017-10-09T03:08:37.874Z,9.37
2017-10-09T03:11:05.398Z,12.63
2017-10-09T03:13:32.947Z,11.30
2017-10-09T03:16:00.479Z,10.13
2017-10-09T03:18:28.029Z,12.47
2017-10-09T03:20:55.556Z,14.80
2017-10-09T03:23:24.359Z,12.10
2017-10-09T03:25:57.478Z,11.80
2017-10-09T03:31:31.090Z,11.00
2017-10-09T03:33:58.651Z,13.27
2017-10-09T03:36:26.182Z,11.17
2017-10-09T03:38:54.501Z,15.13
2017-10-09T03:41:22.023Z,10.60
2017-10-09T03:43:49.570Z,12.07
2017-10-09T03:46:17.867Z,11.50
2017-10-09T03:48:45.435Z,12.47
2017-10-09T03:51:12.962Z,10.70
2017-10-09T03:53:41.258Z,13.60
2017-10-09T03:56:08.814Z,19.87
2017-10-09T03:58:36.347Z,12.70
2017-10-09T04:01:03.922Z,12.83
2017-10-09T04:03:32.221Z,11.30
2017-10-09T04:05:59.779Z,12.50
2017-10-09T04:08:27.303Z,10.90
2017-10-09T04:10:55.623Z,12.03
2017-10-09T04:13:23.138Z,11.40
2017-10-09T04:15:50.843Z,13.40
2017-10-09T04:18:18.379Z,13.60
2017-10-09T04:20:46.699Z,10.10
2017-10-09T04:23:15.587Z,10.80
2017-10-09T04:25:43.183Z,9.27
2017-10-09T04:28:10.722Z,11.80
2017-10-09T04:30:38.284Z,19.83
2017-10-09T04:33:05.815Z,10.27
2017-10-09T04:35:33.378Z,9.87
2017-10-09T04:38:00.914Z,11.40
2017-10-09T04:40:29.198Z,9.37
2017-10-09T04:42:56.746Z,10.07
2017-10-09T04:45:25.042Z,12.67
2017-10-09T04:47:52.595Z,10.77
2017-10-09T04:50:20.127Z,11.03
2017-10-09T04:52:48.453Z,9.80
2017-10-09T04:55:15.987Z,11.70
2017-10-09T04:57:43.544Z,10.97
2017-10-09T05:00:11.083Z,12.90
2017-10-09T05:02:39.408Z,12.40
2017-10-09T05:05:06.947Z,11.50
2017-10-09T05:07:34.504Z,12.40
2017-10-09T05:10:02.040Z,12.27
2017-10-09T05:12:30.358Z,13.33
2017-10-09T05:14:57.887Z,12.43
2017-10-09T05:17:26.215Z,11.27
2017-10-09T05:19:53.750Z,9.03
2017-10-09T05:22:21.312Z,9.60
2017-10-09T05:24:48.843Z,11.00
2017-10-09T05:27:17.166Z,11.70
2017-10-09T05:29:44.706Z,11.73
2017-10-09T05:32:12.259Z,10.93
2017-10-09T05:34:39.786Z,13.57
2017-10-09T05:37:08.131Z,11.93
2017-10-09T05:39:35.662Z,12.80
2017-10-09T05:42:03.192Z,12.33
2017-10-09T05:44:31.531Z,11.60
2017-10-09T05:46:59.063Z,12.87
2017-10-09T05:49:26.633Z,13.67
2017-10-09T05:51:54.171Z,14.10
2017-10-09T05:54:21.752Z,12.30
2017-10-09T05:56:49.290Z,12.77
2017-10-09T05:59:16.858Z,12.60
2017-10-09T06:01:44.387Z,12.33
2017-10-09T06:04:12.717Z,11.43
2017-10-09T06:06:40.266Z,14.03
2017-10-09T06:09:07.830Z,15.27
2017-10-09T06:11:35.506Z,13.70
2017-10-09T06:14:03.066Z,14.07
2017-10-09T06:16:30.603Z,14.73
2017-10-09T06:18:58.162Z,15.60
2017-10-09T06:21:25.700Z,15.57
2017-10-09T06:23:54.027Z,14.33
2017-10-09T06:26:21.559Z,13.73
2017-10-09T06:28:49.106Z,13.07
2017-10-09T06:31:16.640Z,15.43
2017-10-09T06:33:44.203Z,17.63
2017-10-09T06:36:12.506Z,13.67
2017-10-09T06:38:40.074Z,13.97
2017-10-09T06:41:07.606Z,14.20
2017-10-09T06:43:35.902Z,15.30
2017-10-09T06:46:03.459Z,15.23
2017-10-09T06:48:30.995Z,15.53
2017-10-09T06:50:59.331Z,13.83
2017-10-09T06:53:26.880Z,12.97
2017-10-09T06:55:54.442Z,14.83
2017-10-09T06:58:21.978Z,13.57
2017-10-09T07:00:49.542Z,11.53
2017-10-09T07:03:17.084Z,17.77
2017-10-09T07:05:45.403Z,16.07
2017-10-09T07:08:12.930Z,14.70
2017-10-09T07:10:40.495Z,18.63
2017-10-09T07:13:08.040Z,21.30
2017-10-09T07:15:36.365Z,18.87
2017-10-09T07:18:03.901Z,19.50
2017-10-09T07:20:31.463Z,17.10
2017-10-09T07:22:58.999Z,15.60
2017-10-09T07:25:27.326Z,18.73
2017-10-09T07:27:54.869Z,15.67
2017-10-09T07:30:22.430Z,19.70
2017-10-09T07:32:49.966Z,23.07
2017-10-09T07:35:17.522Z,20.10
2017-10-09T07:37:45.065Z,18.80
2017-10-09T07:40:13.414Z,19.13
2017-10-09T07:42:40.952Z,23.40
2017-10-09T07:45:08.487Z,23.50
2017-10-09T07:47:36.048Z,23.93
2017-10-09T07:50:03.593Z,26.67
2017-10-09T07:52:31.150Z,22.13
2017-10-09T07:54:59.456Z,22.53
2017-10-09T07:57:27.031Z,20.70
2017-10-09T07:59:54.580Z,24.37
2017-10-09T08:02:22.151Z,19.97
2017-10-09T08:04:49.716Z,20.17
2017-10-09T08:07:17.278Z,20.00
2017-10-09T08:09:44.820Z,17.13
2017-10-09T08:12:12.383Z,17.20
2017-10-09T08:14:39.923Z,18.30
2017-10-09T08:17:07.485Z,16.33
2017-10-09T08:19:35.022Z,26.83
2017-10-09T08:22:03.355Z,17.57
2017-10-09T08:24:30.902Z,19.03
2017-10-09T08:26:58.467Z,20.73
2017-10-09T08:29:26.005Z,15.80
2017-10-09T08:31:53.575Z,20.50
2017-10-09T08:34:21.110Z,19.17
2017-10-09T08:36:48.671Z,17.97
2017-10-09T08:39:16.207Z,17.53
2017-10-09T08:41:43.766Z,17.10
2017-10-09T08:44:12.075Z,20.23
2017-10-09T08:46:39.611Z,20.43
2017-10-09T08:49:07.946Z,16.00
2017-10-09T08:51:35.494Z,18.10
2017-10-09T08:54:03.043Z,21.70
2017-10-09T08:56:30.589Z,24.07
2017-10-09T08:58:58.151Z,19.40
2017-10-09T09:01:25.695Z,21.17
2017-10-09T09:03:54.010Z,22.50
2017-10-09T09:06:21.547Z,20.63
2017-10-09T09:08:49.101Z,24.60
2017-10-09T09:11:16.640Z,23.73
2017-10-09T09:13:44.978Z,23.77
2017-10-09T09:16:12.511Z,22.80
2017-10-09T09:18:40.084Z,27.17
2017-10-09T09:21:07.627Z,25.17
2017-10-09T09:23:35.184Z,20.97
2017-10-09T09:26:02.717Z,22.40
2017-10-09T09:28:31.054Z,22.17
2017-10-09T09:30:58.591Z,20.30
2017-10-09T09:33:26.156Z,20.63
2017-10-09T09:35:53.698Z,22.17
2017-10-09T09:38:21.259Z,18.87
2017-10-09T09:40:48.806Z,21.80
2017-10-09T09:43:17.130Z,20.50
2017-10-09T09:45:44.664Z,17.30
2017-10-09T09:48:12.255Z,18.77
2017-10-09T09:50:39.789Z,17.70
2017-10-09T09:53:07.335Z,21.00
2017-10-09T09:55:34.897Z,14.60
2017-10-09T09:58:02.433Z,11.83
2017-10-09T10:00:30.754Z,18.50
2017-10-09T10:02:58.298Z,13.37
2017-10-09T10:05:25.850Z,13.33
2017-10-09T10:07:53.383Z,11.73
2017-10-09T10:10:21.713Z,13.73
2017-10-09T10:12:49.250Z,13.53
2017-10-09T10:15:16.812Z,15.30
2017-10-09T10:17:44.356Z,14.37
2017-10-09T10:20:12.679Z,12.53
2017-10-09T10:22:40.214Z,12.00
2017-10-09T10:25:07.762Z,9.37
2017-10-09T10:27:35.295Z,12.80
2017-10-09T10:30:03.616Z,11.30
2017-10-09T10:32:31.147Z,15.57
2017-10-09T10:34:59.473Z,7.93
2017-10-09T10:37:27.004Z,8.70
2017-10-09T10:39:54.559Z,9.20
2017-10-09T10:42:22.086Z,8.43
2017-10-09T10:44:49.630Z,9.70
2017-10-09T10:47:17.164Z,9.73
2017-10-09T10:49:44.721Z,13.67
2017-10-09T10:52:12.455Z,8.40
2017-10-09T10:54:39.982Z,7.37
2017-10-09T10:57:07.549Z,7.57
2017-10-09T10:59:35.844Z,8.17
2017-10-09T11:02:04.168Z,7.23
2017-10-09T11:04:31.695Z,8.83
2017-10-09T11:06:59.255Z,8.47
2017-10-09T11:09:26.783Z,12.37
2017-10-09T11:11:54.354Z,9.43
2017-10-09T11:14:22.652Z,7.97
2017-10-09T11:16:50.208Z,9.90
2017-10-09T11:19:17.758Z,10.13
2017-10-09T11:21:46.083Z,13.00
2017-10-09T11:24:13.611Z,10.20
2017-10-09T11:26:41.165Z,9.87
2017-10-09T11:29:08.795Z,10.50
2017-10-09T11:31:36.354Z,10.60
2017-10-09T11:34:03.881Z,14.53
2017-10-09T11:36:31.435Z,9.80
2017-10-09T11:38:58.970Z,8.70
2017-10-09T11:41:26.522Z,9.40
2017-10-09T11:43:54.081Z,11.00
2017-10-09T11:46:22.399Z,7.53
2017-10-09T11:48:49.930Z,10.57
2017-10-09T11:51:17.508Z,8.33
2017-10-09T11:53:45.035Z,8.70
2017-10-09T11:56:12.562Z,7.83
2017-10-09T11:58:40.110Z,7.53
2017-10-09T12:01:07.634Z,7.20
2017-10-09T12:03:35.181Z,9.13
2017-10-09T12:06:02.714Z,14.33
2017-10-09T12:08:31.040Z,10.60
2017-10-09T12:10:58.575Z,8.20
2017-10-09T12:13:26.138Z,8.03
2017-10-09T12:15:53.668Z,7.40
2017-10-09T12:18:22.079Z,6.17
2017-10-09T12:20:49.647Z,5.60
2017-10-09T12:23:17.211Z,7.20
2017-10-09T12:25:44.738Z,7.07
2017-10-09T12:28:13.067Z,5.53
2017-10-09T12:30:40.600Z,5.40
2017-10-09T12:33:08.175Z,6.80
2017-10-09T12:35:35.716Z,6.83
2017-10-09T12:38:03.274Z,8.40
2017-10-09T12:40:30.803Z,7.53
2017-10-09T12:42:59.130Z,4.80
2017-10-09T12:45:26.662Z,7.73
2017-10-09T12:47:54.250Z,5.37
2017-10-09T12:50:21.825Z,5.27
2017-10-09T12:52:49.386Z,8.13
2017-10-09T12:55:16.917Z,4.70
2017-10-09T12:57:44.467Z,4.87
2017-10-09T13:00:12.004Z,4.70
2017-10-09T13:02:40.303Z,3.20
2017-10-09T13:05:07.855Z,3.10
2017-10-09T13:07:36.144Z,3.70
2017-10-09T13:10:03.696Z,3.07
2017-10-09T13:12:31.234Z,2.93
2017-10-09T13:14:59.550Z,3.37
2017-10-09T13:17:27.074Z,3.37
2017-10-09T13:19:55.400Z,3.70
2017-10-09T13:22:22.931Z,4.10
2017-10-09T13:24:50.490Z,3.83
2017-10-09T13:27:18.024Z,3.20
2017-10-09T13:29:45.580Z,2.87
2017-10-09T13:32:13.106Z,4.60
2017-10-09T13:34:40.662Z,5.73
2017-10-09T13:37:08.191Z,4.47
2017-10-09T13:39:35.748Z,4.60
2017-10-09T13:42:03.278Z,3.30
2017-10-09T13:44:30.839Z,5.50
2017-10-09T13:46:58.367Z,3.90
2017-10-09T13:49:25.915Z,3.30
2017-10-09T13:51:53.434Z,3.60
2017-10-09T13:54:21.759Z,4.63
2017-10-09T13:56:49.283Z,3.43
2017-10-09T13:59:16.907Z,4.03
2017-10-09T14:01:44.444Z,3.73
2017-10-09T14:04:11.985Z,4.00
2017-10-09T14:06:39.540Z,3.87
2017-10-09T14:09:07.085Z,3.43
2017-10-09T14:11:34.638Z,6.70
2017-10-09T14:14:02.938Z,5.57
2017-10-09T14:16:30.492Z,3.63
2017-10-09T14:18:58.019Z,4.37
2017-10-09T14:21:26.335Z,3.70
2017-10-09T14:23:53.862Z,3.90
2017-10-09T14:26:22.192Z,3.70
2017-10-09T14:28:49.735Z,3.47
2017-10-09T14:41:08.898Z,3.73
2017-10-09T14:43:36.425Z,5.40
2017-10-09T14:46:03.984Z,4.37
2017-10-09T14:48:31.511Z,5.93
2017-10-09T14:50:59.840Z,4.83
2017-10-09T14:53:27.383Z,3.60
2017-10-09T14:55:54.942Z,3.30
2017-10-09T14:58:22.472Z,4.77
2017-10-09T15:00:50.797Z,4.30
2017-10-09T15:03:18.344Z,4.30
2017-10-09T15:05:45.907Z,6.20
2017-10-09T15:08:13.440Z,4.73
2017-10-09T15:10:40.976Z,4.47
2017-10-09T15:13:09.299Z,5.80
2017-10-09T15:15:36.823Z,3.90
2017-10-09T15:18:05.146Z,3.73
2017-10-09T15:20:32.675Z,3.80
2017-10-09T15:23:00.227Z,3.70
2017-10-09T15:25:27.759Z,3.90
2017-10-09T15:27:55.307Z,3.80
2017-10-09T15:30:22.835Z,3.93
2017-10-09T15:32:50.389Z,3.47
2017-10-09T15:35:17.914Z,4.30
2017-10-09T15:37:46.231Z,4.37
2017-10-09T15:40:13.763Z,4.00
2017-10-09T15:42:41.312Z,4.10
2017-10-09T15:45:09.612Z,3.50
2017-10-09T15:47:37.168Z,4.07
2017-10-09T15:50:04.700Z,5.97
2017-10-09T15:52:33.019Z,4.10
2017-10-09T15:55:00.544Z,5.87
2017-10-09T15:57:28.860Z,4.23
2017-10-09T15:59:56.403Z,6.60
2017-10-09T16:02:23.951Z,5.77
2017-10-09T16:04:51.486Z,6.07
2017-10-09T16:07:19.052Z,6.27
2017-10-09T16:09:47.363Z,5.60
2017-10-09T16:12:14.918Z,6.27
2017-10-09T16:14:42.444Z,5.77
2017-10-09T16:17:10.768Z,4.80
2017-10-09T16:19:38.303Z,5.40
2017-10-09T16:22:05.881Z,6.60
2017-10-09T16:24:33.409Z,8.83
2017-10-09T16:27:01.705Z,4.90
2017-10-09T16:29:29.259Z,5.90
2017-10-09T16:31:57.579Z,5.37
2017-10-09T16:34:25.172Z,4.33
2017-10-09T16:36:52.708Z,4.83
2017-10-09T16:39:20.267Z,6.40
2017-10-09T16:41:47.908Z,6.50
2017-10-09T16:44:15.471Z,8.03
2017-10-09T16:46:42.998Z,8.40
2017-10-09T16:49:11.316Z,6.20
2017-10-09T16:51:38.847Z,5.77
2017-10-09T16:54:06.523Z,8.20
2017-10-09T16:56:34.056Z,6.77
2017-10-09T16:59:01.619Z,5.90
2017-10-09T17:01:29.161Z,5.50
2017-10-09T17:03:57.486Z,7.17
2017-10-09T17:06:25.018Z,6.27
2017-10-09T17:08:52.570Z,7.30
2017-10-09T17:11:20.869Z,6.73
2017-10-09T17:13:48.418Z,6.10
2017-10-09T17:16:15.947Z,7.40
2017-10-09T17:18:44.272Z,5.00
2017-10-09T17:21:11.811Z,5.50
2017-10-09T17:23:39.396Z,7.30
2017-10-09T17:26:06.955Z,8.50
2017-10-09T17:28:34.502Z,7.57
2017-10-09T17:31:02.037Z,6.70
2017-10-09T17:33:30.359Z,9.30
2017-10-09T17:35:57.892Z,8.77
2017-10-09T17:38:25.483Z,16.27
2017-10-09T17:40:53.025Z,7.10
2017-10-09T17:43:20.554Z,7.73
2017-10-09T17:45:48.879Z,7.37
2017-10-09T17:48:16.417Z,8.80
2017-10-09T17:50:43.970Z,7.67
2017-10-09T17:53:11.507Z,7.10
2017-10-09T17:55:39.895Z,9.77
2017-10-09T17:58:07.451Z,8.63
2017-10-09T18:00:35.024Z,8.90
2017-10-09T18:03:02.563Z,11.03
2017-10-09T18:05:30.884Z,8.80
2017-10-09T18:07:59.187Z,8.10
2017-10-09T18:10:26.752Z,8.10
2017-10-09T18:12:54.292Z,8.40
2017-10-09T18:15:21.847Z,8.10
2017-10-09T18:17:49.376Z,10.33
2017-10-09T18:20:16.944Z,11.53
2017-10-09T18:22:44.480Z,8.90
2017-10-09T18:25:12.773Z,6.77
2017-10-09T18:27:40.333Z,8.97
2017-10-09T18:30:07.860Z,11.63
2017-10-09T18:32:35.427Z,6.80
2017-10-09T18:35:03.728Z,6.70
2017-10-09T18:37:31.324Z,8.53
2017-10-09T18:39:59.315Z,9.93
2017-10-09T18:42:26.929Z,8.10
2017-10-09T18:44:54.460Z,9.53
2017-10-09T18:47:22.787Z,7.50
2017-10-09T18:49:50.315Z,8.10
2017-10-09T18:52:17.879Z,8.70
2017-10-09T18:54:45.528Z,11.20
2017-10-09T18:57:13.120Z,11.87
2017-10-09T18:59:40.656Z,9.87
2017-10-09T19:02:08.301Z,10.70
2017-10-09T19:04:36.608Z,11.67
2017-10-09T19:07:04.176Z,12.53
2017-10-09T19:09:31.711Z,12.20
2017-10-09T19:12:00.037Z,11.07
2017-10-09T19:14:27.579Z,14.80
2017-10-09T19:16:55.174Z,19.13
2017-10-09T19:19:22.715Z,9.33
2017-10-09T19:21:50.277Z,13.27
2017-10-09T19:24:17.855Z,9.90
2017-10-09T19:26:45.395Z,13.60
2017-10-09T19:29:12.959Z,7.90
2017-10-09T19:31:40.507Z,8.40
2017-10-09T19:34:08.070Z,10.47
2017-10-09T19:36:35.616Z,8.20
2017-10-09T19:39:03.179Z,12.20
2017-10-09T19:41:30.712Z,6.97
2017-10-09T19:43:58.274Z,8.23
2017-10-09T19:46:25.806Z,8.60
2017-10-09T19:48:53.371Z,10.60
2017-10-09T19:51:21.691Z,12.13
2017-10-09T19:53:49.254Z,11.13
2017-10-09T19:56:16.789Z,7.47
2017-10-09T19:58:44.360Z,7.20
2017-10-09T20:01:11.910Z,7.77
2017-10-09T20:03:39.504Z,7.87
2017-10-09T20:06:07.156Z,8.97
2017-10-09T20:08:34.732Z,7.07
2017-10-09T20:11:02.278Z,9.83
2017-10-09T20:13:29.847Z,9.57
2017-10-09T20:15:57.389Z,9.63
2017-10-09T20:18:24.922Z,9.30
2017-10-09T20:20:53.243Z,8.00
2017-10-09T20:23:20.787Z,8.03
2017-10-09T20:25:48.346Z,9.17
2017-10-09T20:28:15.887Z,8.87
2017-10-09T20:30:43.452Z,9.10
2017-10-09T20:33:11.003Z,8.27
2017-10-09T20:35:38.566Z,9.70
2017-10-09T20:38:06.103Z,8.67
2017-10-09T20:40:34.430Z,8.50
2017-10-09T20:43:01.977Z,11.67
2017-10-09T20:45:29.523Z,9.63
2017-10-09T20:47:57.055Z,8.40
2017-10-09T20:50:25.383Z,9.50
2017-10-09T20:52:52.912Z,8.23
2017-10-09T20:55:20.472Z,9.77
2017-10-09T20:57:48.770Z,11.27
2017-10-09T21:00:16.387Z,9.53
2017-10-09T21:02:43.914Z,15.00
2017-10-09T21:05:11.468Z,8.77
2017-10-09T21:07:38.995Z,8.73
2017-10-09T21:10:06.560Z,10.10
2017-10-09T21:12:34.092Z,10.80
2017-10-09T21:15:02.431Z,9.90
2017-10-09T21:17:29.967Z,11.00
2017-10-09T21:19:57.523Z,10.53
2017-10-09T21:22:25.047Z,9.23
2017-10-09T21:24:53.356Z,13.10
2017-10-09T21:27:20.912Z,10.33
2017-10-09T21:29:48.451Z,12.10
2017-10-09T21:32:16.779Z,11.70
2017-10-09T21:34:44.317Z,11.03
2017-10-09T21:37:11.882Z,11.57
2017-10-09T21:39:39.419Z,10.50
2017-10-09T21:42:06.979Z,13.87
2017-10-09T21:44:34.519Z,10.73
2017-10-09T21:47:02.847Z,11.93
2017-10-09T21:49:30.379Z,9.73
2017-10-09T21:51:57.936Z,10.77
2017-10-09T21:54:25.476Z,13.87
2017-10-09T21:56:53.034Z,12.10
2017-10-09T21:59:20.576Z,13.50
2017-10-09T22:01:48.135Z,10.67
2017-10-09T22:04:15.685Z,11.50
2017-10-09T22:06:43.250Z,13.57
2017-10-09T22:09:10.787Z,11.57
2017-10-09T22:11:38.343Z,12.13
2017-10-09T22:14:05.883Z,13.47
2017-10-09T22:16:33.414Z,11.80
2017-10-09T22:19:01.741Z,13.10
2017-10-09T22:21:29.271Z,14.27
2017-10-09T22:23:56.831Z,12.63
2017-10-09T22:26:24.371Z,12.87
2017-10-09T22:28:52.700Z,13.80
2017-10-09T22:52:23.163Z,18.10
2017-10-09T22:54:50.730Z,18.27
2017-10-09T22:57:18.267Z,19.63
2017-10-09T22:59:46.810Z,13.80
2017-10-09T23:02:14.353Z,16.07
2017-10-09T23:04:59.021Z,15.30
2017-10-09T23:07:26.556Z,12.33
2017-10-09T23:09:54.117Z,12.83
2017-10-09T23:12:21.651Z,14.10
2017-10-09T23:14:49.207Z,11.90
2017-10-09T23:17:16.735Z,11.03
2017-10-09T23:19:44.286Z,16.00
2017-10-09T23:22:11.812Z,14.07
2017-10-09T23:24:39.376Z,17.63
2017-10-09T23:27:06.907Z,11.37
2017-10-09T23:29:34.467Z,11.20
2017-10-09T23:32:02.008Z,10.07
2017-10-09T23:34:30.335Z,13.67
2017-10-09T23:36:57.871Z,12.13
2017-10-09T23:39:25.431Z,11.37
2017-10-09T23:41:52.962Z,12.90
2017-10-09T23:44:21.292Z,11.60
2017-10-09T23:46:48.818Z,15.97
2017-10-09T23:49:16.384Z,11.17
2017-10-09T23:51:43.923Z,16.23
2017-10-09T23:54:12.238Z,10.30
2017-10-09T23:56:39.772Z,13.67
2017-10-09T23:59:07.347Z,12.57
